Aviation Digital Data Service (ADDS)

Output produced by METARs form (1219 UTC 04 September 2015)
found at http://aviationweather.gov/adds/metars/
 
KFRG 041153Z 06007KT 020V080 7SM SCT080 25/21 A3002 RMK AO2 SLP163 T02500211 10250 20228 53029
KISP 041156Z 05008KT 5SM HZ FEW009 FEW055 SCT085 BKN270 24/21 A3001 RMK AO2 SLP160 T02440211 10244 20222 52031
KISP 041129Z 06006KT 4SM BR FEW009 SCT070 BKN085 BKN270 24/22 A2999 RMK AO2 T02390217
KISP 041120Z 0412/0512 05010KT P6SM BKN070 BKN250 
     TEMPO 0412/0414 5SM BR 
     FM041400 06012KT P6SM BKN050 
     FM041800 07013G20KT P6SM BKN050 
     FM042000 08014G20KT P6SM BKN150 
     FM050100 06008KT P6SM SCT250
       
KJFK 041151Z 04009KT 10SM FEW080 SCT140 SCT250 25/21 A3002 RMK AO2 SLP165 T02500206 10256 20239 53029 $
KJFK 041120Z 0412/0518 04010KT P6SM SCT250 
     FM041500 06012KT P6SM BKN050 
     FM041700 07013G19KT P6SM BKN060 
     FM042300 08011KT P6SM BKN100 
     FM050300 06008KT P6SM BKN250 
     FM050600 05009KT P6SM SCT250
       
KBDR 041152Z 05008KT 9SM SCT060 24/19 A3003 RMK AO2 SLP169 T02440194 10244 20233 53031 $
KBDR 041120Z 0412/0512 05009KT P6SM BKN050 
     FM041600 07013KT P6SM BKN050 
     FM042000 08014G20KT P6SM BKN150 
     FM050400 04009KT P6SM SCT250